Time;durP1;ratioP1;P1;durP2;ratioP2;P2;SDS_P1;SDS_P2;PMS_P1;PMS_P2;Temp;Humidity;BMP_temperature;BMP_pressure;BME280_temperature;BME280_humidity;BME280_pressure;Samples;Min_cycle;Max_cycle;Signal;HPM_P1;HPM_P2
2022/09/16 00:01:42;;;;;;;8.90;1.27;;;11.60;99.90;;;;;;5055173;28;20055;-83
2022/09/16 00:04:08;;;;;;;5.63;1.00;;;11.70;99.90;;;;;;5068583;28;20052;-83
2022/09/16 00:06:33;;;;;;;7.18;1.55;;;11.70;99.90;;;;;;5083630;28;20063;-83
2022/09/16 00:09:00;;;;;;;8.27;1.63;;;11.70;99.90;;;;;;5069449;28;20044;-82
2022/09/16 00:11:26;;;;;;;4.43;1.10;;;11.70;99.90;;;;;;5084599;27;20039;-83
2022/09/16 00:13:52;;;;;;;6.65;1.20;;;11.70;99.90;;;;;;5092132;27;20039;-84
2022/09/16 00:16:26;;;;;;;4.15;1.42;;;11.70;99.90;;;;;;5062709;28;20617;-83
2022/09/16 00:18:54;;;;;;;4.63;1.13;;;11.70;99.90;;;;;;5092834;27;20570;-83
2022/09/16 00:21:20;;;;;;;9.05;1.40;;;11.70;99.90;;;;;;5071138;27;20098;-83
2022/09/16 00:23:46;;;;;;;3.42;0.85;;;11.70;99.90;;;;;;5099658;27;20046;-83
2022/09/16 00:26:12;;;;;;;5.47;0.95;;;11.70;99.90;;;;;;5062844;28;20043;-83
2022/09/16 00:28:38;;;;;;;6.60;1.10;;;11.70;99.90;;;;;;5051997;27;20729;-83
2022/09/16 00:31:11;;;;;;;7.50;1.50;;;11.70;99.90;;;;;;5071116;27;20131;-84
2022/09/16 00:33:37;;;;;;;5.32;1.08;;;11.80;99.90;;;;;;5077880;28;20031;-83
2022/09/16 00:36:18;;;;;;;3.25;0.82;;;11.80;99.90;;;;;;5071363;28;20067;-83
2022/09/16 00:38:44;;;;;;;3.83;0.93;;;11.80;99.90;;;;;;5069887;28;20043;-84
2022/09/16 00:41:19;;;;;;;6.30;1.40;;;11.80;99.90;;;;;;5085321;28;20509;-84
2022/09/16 00:44:00;;;;;;;3.72;1.20;;;11.90;99.90;;;;;;5094004;27;20525;-83
2022/09/16 00:46:35;;;;;;;5.65;1.00;;;11.90;99.90;;;;;;5072655;28;20441;-83
2022/09/16 00:49:17;;;;;;;3.42;0.80;;;11.90;99.90;;;;;;5081019;28;20094;-83
2022/09/16 00:51:46;;;;;;;5.22;1.02;;;11.90;99.90;;;;;;5092571;28;20371;-83
2022/09/16 00:54:17;;;;;;;5.53;1.20;;;11.80;99.90;;;;;;5089783;27;20052;-83
2022/09/16 00:56:47;;;;;;;5.78;1.10;;;11.80;99.90;;;;;;5089391;27;20071;-83
2022/09/16 00:59:26;;;;;;;5.20;1.17;;;11.80;99.90;;;;;;5075224;28;20174;-83
2022/09/16 01:01:54;;;;;;;5.63;1.10;;;11.80;99.90;;;;;;5075644;27;20119;-82
2022/09/16 01:04:28;;;;;;;7.07;1.08;;;11.80;99.90;;;;;;5091398;27;20045;-82
2022/09/16 01:06:54;;;;;;;4.18;0.82;;;11.80;99.90;;;;;;5089068;27;20042;-83
2022/09/16 01:09:22;;;;;;;5.25;1.20;;;11.80;99.90;;;;;;5071740;27;20105;-83
2022/09/16 01:11:48;;;;;;;7.68;1.08;;;11.70;99.90;;;;;;5066037;28;20040;-83
2022/09/16 01:17:03;;;;;;;4.57;0.82;;;11.80;99.90;;;;;;5082081;27;20880;-82
2022/09/16 01:20:03;;;;;;;3.90;0.85;;;11.80;99.90;;;;;;5083393;28;20055;-83
2022/09/16 01:22:38;;;;;;;6.43;1.40;;;11.80;99.90;;;;;;5074826;27;20550;-84
2022/09/16 01:25:25;;;;;;;5.47;1.08;;;11.70;99.90;;;;;;5062998;28;20108;-83
2022/09/16 01:28:36;;;;;;;8.05;1.45;;;11.70;99.90;;;;;;5090903;27;20122;-83
2022/09/16 01:31:15;;;;;;;7.13;1.10;;;11.70;99.90;;;;;;5075752;28;20091;-83
2022/09/16 01:34:08;;;;;;;4.95;1.10;;;11.70;99.90;;;;;;5082924;27;20039;-83
2022/09/16 01:36:56;;;;;;;6.03;1.38;;;11.70;99.90;;;;;;5086599;28;20120;-83
2022/09/16 01:39:56;;;;;;;7.70;1.23;;;11.70;99.90;;;;;;5086392;28;20047;-83
2022/09/16 01:42:33;;;;;;;;;;;11.70;99.90;;;;;;5066797;28;20043;-82
2022/09/16 01:45:18;;;;;;;4.93;1.10;;;11.60;99.90;;;;;;5066685;28;19923;-83
2022/09/16 01:47:49;;;;;;;5.50;1.40;;;11.60;99.90;;;;;;5064238;28;20394;-82
2022/09/16 01:50:26;;;;;;;4.13;1.33;;;11.60;99.90;;;;;;5074372;28;20486;-83
2022/09/16 01:53:14;;;;;;;4.30;1.20;;;11.60;99.90;;;;;;5059173;28;20082;-83
2022/09/16 01:55:45;;;;;;;5.53;1.27;;;11.60;99.90;;;;;;5074158;27;20135;-83
2022/09/16 01:58:36;;;;;;;6.63;1.20;;;11.60;99.90;;;;;;5067581;28;20044;-83
2022/09/16 02:01:13;;;;;;;5.43;1.02;;;11.70;99.90;;;;;;5051747;28;20050;-82
2022/09/16 02:03:41;;;;;;;4.85;1.02;;;11.70;99.90;;;;;;5073210;28;20047;-83
2022/09/16 02:06:19;;;;;;;4.15;1.10;;;11.70;99.90;;;;;;5055975;28;20142;-83
2022/09/16 02:08:59;;;;;;;5.97;1.05;;;11.70;99.90;;;;;;5066709;28;20051;-83
2022/09/16 02:11:25;;;;;;;4.13;1.07;;;11.70;99.90;;;;;;5055257;28;20036;-83
2022/09/16 02:13:56;;;;;;;5.70;0.90;;;11.60;99.90;;;;;;5067580;28;20561;-83
2022/09/16 02:16:29;;;;;;;5.30;1.20;;;11.60;99.90;;;;;;5054571;28;20099;-82
2022/09/16 02:19:02;;;;;;;3.60;0.70;;;11.60;99.90;;;;;;5071101;28;20047;-83
2022/09/16 02:21:30;;;;;;;6.07;1.38;;;11.60;99.90;;;;;;5057872;28;20036;-83
2022/09/16 02:24:02;;;;;;;6.32;1.20;;;11.60;99.90;;;;;;5072858;28;20044;-82
2022/09/16 02:26:33;;;;;;;5.32;1.10;;;11.50;99.90;;;;;;5059367;28;20124;-83
2022/09/16 02:29:02;;;;;;;7.00;1.33;;;11.50;99.90;;;;;;5071782;28;20040;-83
2022/09/16 02:31:33;;;;;;;6.00;1.10;;;11.40;99.90;;;;;;5050736;28;20127;-83
2022/09/16 02:34:11;;;;;;;6.45;1.95;;;11.40;99.90;;;;;;5074788;28;20587;-83
2022/09/16 02:36:41;;;;;;;6.13;1.10;;;11.30;99.90;;;;;;5083364;28;20104;-83
2022/09/16 02:39:10;;;;;;;9.63;1.50;;;11.30;99.90;;;;;;5057067;28;20051;-83
2022/09/16 02:41:40;;;;;;;8.07;1.10;;;11.20;99.90;;;;;;5067134;28;20052;-83
2022/09/16 02:44:07;;;;;;;;;;;11.20;99.90;;;;;;5048762;28;20044;-83
2022/09/16 02:46:43;;;;;;;3.50;1.00;;;11.10;99.90;;;;;;5067136;28;20298;-83
2022/09/16 02:49:32;;;;;;;6.60;1.20;;;11.10;99.90;;;;;;5067304;28;20058;-82
2022/09/16 02:52:11;;;;;;;5.03;1.00;;;11.10;99.90;;;;;;5073889;28;20044;-83
2022/09/16 02:54:52;;;;;;;6.15;1.00;;;11.10;99.90;;;;;;5059673;28;20043;-83
2022/09/16 02:57:18;;;;;;;5.53;1.10;;;11.10;99.90;;;;;;5061591;28;20047;-83
2022/09/16 02:59:44;;;;;;;4.75;1.00;;;11.20;99.90;;;;;;5048412;28;20132;-83
2022/09/16 03:02:11;;;;;;;7.40;1.50;;;11.20;99.90;;;;;;5024531;28;20040;-84
2022/09/16 03:04:37;;;;;;;6.78;1.33;;;11.10;99.90;;;;;;5048616;28;20075;-83
2022/09/16 03:07:09;;;;;;;6.40;1.20;;;11.20;99.90;;;;;;5043433;28;20040;-82
2022/09/16 03:09:38;;;;;;;7.40;1.40;;;11.20;99.90;;;;;;5061320;28;20130;-83
2022/09/16 03:12:26;;;;;;;7.63;1.30;;;11.20;99.90;;;;;;5072751;28;20040;-83
2022/09/16 03:15:08;;;;;;;5.93;1.02;;;11.20;99.90;;;;;;5060482;28;20122;-83
2022/09/16 03:18:12;;;;;;;5.95;1.23;;;11.20;99.90;;;;;;5061355;28;20144;-83
2022/09/16 03:21:07;;;;;;;4.55;1.38;;;11.20;99.90;;;;;;5002364;28;20439;-83
2022/09/16 03:23:55;;;;;;;9.63;1.63;;;11.30;99.90;;;;;;5050993;28;20028;-83
2022/09/16 03:26:46;;;;;;;4.88;0.98;;;11.30;99.90;;;;;;5068295;28;20486;-83
2022/09/16 03:29:23;;;;;;;6.18;1.20;;;11.30;99.90;;;;;;5077882;28;20044;-83
2022/09/16 03:31:58;;;;;;;4.63;1.25;;;11.30;99.90;;;;;;5073384;28;20048;-83
2022/09/16 03:34:37;;;;;;;6.15;1.40;;;11.30;99.90;;;;;;5061817;28;20497;-83
2022/09/16 03:37:07;;;;;;;5.03;1.08;;;11.20;99.90;;;;;;5068731;28;20127;-83
2022/09/16 03:39:33;;;;;;;;;;;11.20;99.90;;;;;;5069719;28;20109;-83
2022/09/16 03:42:01;;;;;;;5.63;1.17;;;11.20;99.90;;;;;;5066626;28;19950;-83
2022/09/16 03:44:35;;;;;;;7.50;1.42;;;11.10;99.90;;;;;;5065975;28;20051;-83
2022/09/16 03:47:02;;;;;;;6.05;1.40;;;11.10;99.90;;;;;;5060269;28;20052;-83
2022/09/16 03:49:29;;;;;;;6.88;1.20;;;11.10;99.90;;;;;;5042862;28;20131;-82
2022/09/16 03:51:55;;;;;;;6.47;1.13;;;11.10;99.90;;;;;;5043295;28;20048;-83
2022/09/16 03:54:22;;;;;;;5.70;1.35;;;11.10;99.90;;;;;;5046194;28;20050;-82
2022/09/16 03:56:48;;;;;;;6.68;1.10;;;11.10;99.90;;;;;;5053164;28;20658;-83
2022/09/16 03:59:13;;;;;;;6.25;1.20;;;11.10;99.90;;;;;;5048134;28;20035;-82
2022/09/16 04:01:39;;;;;;;6.95;1.63;;;11.10;99.90;;;;;;5062519;28;20122;-83
2022/09/16 04:04:06;;;;;;;4.53;1.10;;;11.10;99.90;;;;;;5060148;28;20047;-82
2022/09/16 04:06:31;;;;;;;6.45;1.30;;;11.10;99.90;;;;;;5071152;28;20039;-82
2022/09/16 04:09:00;;;;;;;6.35;1.48;;;11.10;99.90;;;;;;5053216;28;20040;-82
2022/09/16 04:11:28;;;;;;;7.25;1.25;;;11.10;99.90;;;;;;5049943;28;20635;-82
2022/09/16 04:13:54;;;;;;;5.88;1.00;;;11.00;99.90;;;;;;5046963;28;20569;-83
2022/09/16 04:16:21;;;;;;;6.57;1.23;;;11.00;99.90;;;;;;5065653;28;20059;-83
2022/09/16 04:18:47;;;;;;;4.45;0.90;;;11.00;99.90;;;;;;5076771;28;20128;-82
2022/09/16 04:21:13;;;;;;;6.78;1.23;;;10.90;99.90;;;;;;5059942;28;20043;-83
2022/09/16 04:23:39;;;;;;;6.55;1.20;;;10.80;99.90;;;;;;5064855;28;20063;-83
2022/09/16 04:26:09;;;;;;;4.72;0.90;;;10.80;99.90;;;;;;5056073;28;20032;-82
2022/09/16 04:28:38;;;;;;;5.60;1.05;;;10.80;99.90;;;;;;5074578;28;20048;-82
2022/09/16 04:31:06;;;;;;;6.00;0.90;;;10.80;99.90;;;;;;5058004;28;20075;-82
2022/09/16 04:33:33;;;;;;;5.50;1.00;;;10.80;99.90;;;;;;5056728;28;20031;-82
2022/09/16 04:36:11;;;;;;;6.85;0.93;;;10.80;99.90;;;;;;5065341;28;20051;-82
2022/09/16 04:38:38;;;;;;;5.13;0.73;;;10.90;99.90;;;;;;5075555;28;20105;-81
2022/09/16 04:41:16;;;;;;;6.97;1.00;;;10.90;99.90;;;;;;5073474;28;20036;-82
2022/09/16 04:43:42;;;;;;;6.65;0.98;;;10.90;99.90;;;;;;5066649;28;20162;-82
2022/09/16 04:46:08;;;;;;;7.20;1.00;;;10.90;99.90;;;;;;5032929;28;20135;-82
2022/09/16 04:48:38;;;;;;;5.35;0.90;;;10.90;99.90;;;;;;5062364;28;20871;-82
2022/09/16 04:51:09;;;;;;;5.83;1.27;;;10.90;99.90;;;;;;5070921;28;20052;-82
2022/09/16 04:53:37;;;;;;;7.43;1.20;;;10.80;99.90;;;;;;5055207;28;20294;-82
2022/09/16 04:56:08;;;;;;;6.25;1.23;;;10.90;99.90;;;;;;5085792;28;20043;-82
2022/09/16 04:58:37;;;;;;;5.80;1.15;;;10.90;99.90;;;;;;5073337;28;20063;-81
2022/09/16 05:01:11;;;;;;;5.82;1.00;;;10.90;99.90;;;;;;5066973;28;20428;-82
2022/09/16 05:03:46;;;;;;;4.70;0.90;;;10.90;99.90;;;;;;5053165;28;20154;-82
2022/09/16 05:06:26;;;;;;;8.75;1.25;;;10.80;99.90;;;;;;5075466;28;20058;-82
2022/09/16 05:08:53;;;;;;;;;;;10.80;99.90;;;;;;5053983;28;20235;-81
2022/09/16 05:11:24;;;;;;;6.55;1.20;;;10.80;99.90;;;;;;5043672;28;19931;-82
2022/09/16 05:13:50;;;;;;;5.55;1.20;;;10.70;99.90;;;;;;5068153;28;20052;-82
2022/09/16 05:16:18;;;;;;;4.32;1.00;;;10.70;99.90;;;;;;5074473;28;20499;-82
2022/09/16 05:18:46;;;;;;;5.93;1.20;;;10.60;99.90;;;;;;5085577;28;20490;-82
2022/09/16 05:21:15;;;;;;;6.38;1.20;;;10.60;99.90;;;;;;5071599;28;20692;-81
2022/09/16 05:23:41;;;;;;;5.72;1.20;;;10.50;99.90;;;;;;5073223;28;20039;-81
2022/09/16 05:26:09;;;;;;;5.72;1.00;;;10.50;99.90;;;;;;5070640;28;20079;-81
2022/09/16 05:28:36;;;;;;;5.30;1.33;;;10.40;99.90;;;;;;5081942;28;20460;-82
2022/09/16 05:31:15;;;;;;;5.22;1.20;;;10.40;99.90;;;;;;5057107;28;20453;-82
2022/09/16 05:33:43;;;;;;;8.25;1.33;;;10.30;99.90;;;;;;5063455;27;20035;-82
2022/09/16 05:36:12;;;;;;;4.35;1.13;;;10.30;99.90;;;;;;5075483;27;20083;-81
2022/09/16 05:38:38;;;;;;;7.80;1.42;;;10.30;99.90;;;;;;5059980;28;20051;-81
2022/09/16 05:41:04;;;;;;;5.60;1.02;;;10.20;99.90;;;;;;5068649;27;20092;-82
2022/09/16 05:43:31;;;;;;;8.50;1.75;;;10.20;99.90;;;;;;5071457;28;20570;-82
2022/09/16 05:45:57;;;;;;;7.28;1.42;;;10.30;99.90;;;;;;5064119;28;20063;-84
2022/09/16 05:48:24;;;;;;;6.05;1.23;;;10.30;99.90;;;;;;5059930;28;20082;-82
2022/09/16 05:51:02;;;;;;;9.90;2.03;;;10.30;99.90;;;;;;5087717;27;20057;-82
2022/09/16 05:53:29;;;;;;;7.07;2.13;;;10.40;99.90;;;;;;5065341;28;20050;-82
2022/09/16 05:56:07;;;;;;;7.00;1.98;;;10.40;99.90;;;;;;5059862;28;20043;-82
2022/09/16 05:58:34;;;;;;;9.77;1.80;;;10.40;99.90;;;;;;5082323;28;20492;-82
2022/09/16 06:01:02;;;;;;;9.45;2.17;;;10.50;99.90;;;;;;5080983;27;20032;-82
2022/09/16 06:03:28;;;;;;;4.00;1.27;;;10.50;99.90;;;;;;5075749;27;20108;-83
2022/09/16 06:06:02;;;;;;;6.97;1.52;;;10.50;99.90;;;;;;5046386;28;20036;-82
2022/09/16 06:08:29;;;;;;;6.20;1.45;;;10.50;99.90;;;;;;5075214;28;20040;-82
2022/09/16 06:10:55;;;;;;;8.13;1.58;;;10.60;99.90;;;;;;5075323;27;20476;-84
2022/09/16 06:13:21;;;;;;;11.38;2.25;;;10.60;99.90;;;;;;5062046;28;20093;-86
2022/09/16 06:15:49;;;;;;;10.27;1.70;;;10.70;99.90;;;;;;5032459;27;20035;-86
2022/09/16 06:18:16;;;;;;;8.50;1.67;;;10.70;99.90;;;;;;5046794;27;20050;-86
2022/09/16 06:20:42;;;;;;;11.65;2.17;;;10.80;99.90;;;;;;5051315;27;20093;-86
2022/09/16 06:23:07;;;;;;;8.63;1.75;;;10.80;99.90;;;;;;5049580;28;20049;-86
2022/09/16 06:25:33;;;;;;;7.55;1.27;;;10.80;99.90;;;;;;5035012;27;20546;-87
2022/09/16 06:27:59;;;;;;;9.43;1.95;;;10.80;99.90;;;;;;5069909;27;20096;-87
2022/09/16 06:30:25;;;;;;;6.82;1.55;;;10.80;99.90;;;;;;5063395;28;20483;-87
2022/09/16 06:32:54;;;;;;;9.75;1.50;;;10.90;99.90;;;;;;5056402;27;20065;-87
2022/09/16 06:35:20;;;;;;;10.50;1.70;;;10.90;99.90;;;;;;5050153;28;20048;-87
2022/09/16 06:37:46;;;;;;;9.30;2.20;;;10.90;99.90;;;;;;5050475;27;20051;-85
2022/09/16 06:40:12;;;;;;;8.02;1.75;;;10.90;99.90;;;;;;5071379;27;20356;-85
2022/09/16 06:42:38;;;;;;;10.43;2.17;;;11.00;99.90;;;;;;5074948;27;20043;-86
2022/09/16 06:45:05;;;;;;;8.05;1.50;;;11.00;99.90;;;;;;5031905;28;20044;-87
2022/09/16 06:47:34;;;;;;;9.77;1.75;;;11.10;99.90;;;;;;5064316;27;20057;-87
2022/09/16 06:50:01;;;;;;;11.32;2.20;;;11.10;99.90;;;;;;5050447;28;20138;-88
2022/09/16 06:52:27;;;;;;;10.50;1.65;;;11.20;99.90;;;;;;5079204;28;20044;-87
2022/09/16 06:54:53;;;;;;;9.80;2.17;;;11.30;99.90;;;;;;5044723;28;20092;-88
2022/09/16 06:57:21;;;;;;;9.93;1.67;;;11.30;99.90;;;;;;5078493;28;20046;-85
2022/09/16 06:59:48;;;;;;;11.77;1.45;;;11.40;99.90;;;;;;5064334;28;20042;-87
2022/09/16 07:02:15;;;;;;;9.90;1.73;;;11.50;99.90;;;;;;5060608;28;20063;-87
2022/09/16 07:04:41;;;;;;;8.98;1.95;;;11.50;99.90;;;;;;5052209;28;20140;-86
2022/09/16 07:07:07;;;;;;;8.07;1.58;;;11.60;99.90;;;;;;5044656;28;20397;-86
2022/09/16 07:09:33;;;;;;;9.55;1.88;;;11.70;99.90;;;;;;5075011;28;20059;-84
2022/09/16 07:12:00;;;;;;;8.98;2.08;;;11.90;99.90;;;;;;5083906;28;20480;-85
2022/09/16 07:14:27;;;;;;;8.10;1.77;;;12.00;99.90;;;;;;5046772;28;20071;-84
2022/09/16 07:16:53;;;;;;;7.50;1.65;;;12.00;99.90;;;;;;5079779;27;20131;-86
2022/09/16 07:19:19;;;;;;;11.65;1.77;;;12.00;99.90;;;;;;5033744;28;20505;-88
2022/09/16 07:21:45;;;;;;;9.90;1.48;;;12.00;99.90;;;;;;5047592;28;20039;-88
2022/09/16 07:24:12;;;;;;;10.93;1.73;;;12.00;99.90;;;;;;5058145;28;20133;-88
2022/09/16 07:26:40;;;;;;;10.27;1.80;;;12.00;99.90;;;;;;5084183;28;20050;-88
2022/09/16 07:29:15;;;;;;;7.45;1.60;;;12.10;99.90;;;;;;5046409;28;20040;-87
2022/09/16 07:31:41;;;;;;;9.20;1.60;;;12.20;99.90;;;;;;5065376;28;20055;-87
2022/09/16 07:34:14;;;;;;;9.02;1.55;;;12.40;99.90;;;;;;5071462;28;20039;-87
2022/09/16 07:36:57;;;;;;;8.32;1.90;;;12.60;99.90;;;;;;5064316;28;20051;-87
2022/09/16 07:39:26;;;;;;;6.97;1.58;;;12.70;99.90;;;;;;5069705;28;20798;-86
2022/09/16 07:41:52;;;;;;;14.32;2.03;;;12.90;99.90;;;;;;5051389;28;20085;-86
2022/09/16 07:44:40;;;;;;;14.07;2.35;;;13.10;99.90;;;;;;5049928;28;20052;-86
2022/09/16 07:47:09;;;;;;;12.10;1.67;;;13.40;99.90;;;;;;5066261;28;20039;-86
2022/09/16 07:49:41;;;;;;;12.20;2.33;;;13.60;99.90;;;;;;5060179;28;20048;-85
2022/09/16 07:52:50;;;;;;;8.50;1.73;;;13.70;99.90;;;;;;5063687;27;20433;-85
2022/09/16 07:55:29;;;;;;;11.02;2.60;;;14.00;99.90;;;;;;5052218;28;20375;-85
2022/09/16 07:57:55;;;;;;;11.00;2.10;;;14.10;99.90;;;;;;5079617;28;20490;-84
2022/09/16 08:00:25;;;;;;;10.65;1.77;;;14.30;99.90;;;;;;5064188;28;20047;-85
2022/09/16 08:02:54;;;;;;;;;;;14.50;99.90;;;;;;5048687;28;20090;-86
2022/09/16 08:05:23;;;;;;;9.98;1.60;;;14.60;99.90;;;;;;5078574;28;19928;-84
2022/09/16 08:07:54;;;;;;;11.43;2.00;;;14.80;99.90;;;;;;5062713;28;20059;-85
2022/09/16 08:10:28;;;;;;;9.57;1.63;;;14.70;99.90;;;;;;5063699;28;20072;-84
2022/09/16 08:13:16;;;;;;;9.15;1.55;;;14.70;99.90;;;;;;5065627;28;20062;-85
2022/09/16 08:15:42;;;;;;;10.73;1.67;;;14.70;99.90;;;;;;5091353;28;20039;-85
2022/09/16 08:18:11;;;;;;;9.95;1.77;;;14.80;99.90;;;;;;5063982;28;20046;-86
2022/09/16 08:20:37;;;;;;;9.55;1.48;;;15.00;99.90;;;;;;5048754;28;20040;-82
2022/09/16 08:23:02;;;;;;;12.60;2.20;;;15.20;99.90;;;;;;5041111;28;20128;-82
2022/09/16 08:25:28;;;;;;;8.10;1.50;;;15.50;99.90;;;;;;5046773;28;20054;-85
2022/09/16 08:27:54;;;;;;;11.88;1.90;;;15.70;99.90;;;;;;5065939;28;20032;-84
2022/09/16 08:30:20;;;;;;;10.40;2.05;;;15.80;99.90;;;;;;5034800;28;20040;-83
2022/09/16 08:32:46;;;;;;;6.72;1.55;;;15.80;99.90;;;;;;5075343;28;20044;-83
2022/09/16 08:35:13;;;;;;;8.80;1.92;;;15.80;99.90;;;;;;5049633;28;20052;-82
2022/09/16 08:37:40;;;;;;;9.15;1.85;;;15.80;99.90;;;;;;5045974;28;20087;-83
2022/09/16 08:40:15;;;;;;;9.77;2.13;;;15.80;99.90;;;;;;5050994;28;20071;-81
2022/09/16 08:43:02;;;;;;;15.02;2.00;;;15.90;99.90;;;;;;5077777;28;20048;-82
2022/09/16 08:45:54;;;;;;;10.48;2.35;;;15.90;99.90;;;;;;5083909;28;20051;-80
2022/09/16 08:48:57;;;;;;;7.68;1.85;;;15.70;99.90;;;;;;5075149;28;20047;-81
2022/09/16 08:51:24;;;;;;;7.75;1.75;;;15.50;99.90;;;;;;5071370;28;20313;-81
2022/09/16 08:54:10;;;;;;;11.40;2.00;;;15.50;99.90;;;;;;5060681;28;20079;-82
2022/09/16 08:56:39;;;;;;;8.10;1.65;;;15.80;99.90;;;;;;5055675;28;20126;-80
2022/09/16 08:59:13;;;;;;;11.25;2.75;;;15.80;99.90;;;;;;5037719;28;20079;-81
2022/09/16 09:02:14;;;;;;;9.23;1.67;;;15.90;99.90;;;;;;5053889;28;20396;-82
2022/09/16 09:04:40;;;;;;;9.43;1.88;;;16.00;99.90;;;;;;5060339;28;20122;-82
2022/09/16 09:07:34;;;;;;;8.07;1.85;;;16.20;99.90;;;;;;5054985;28;20032;-81
2022/09/16 09:10:08;;;;;;;9.20;1.92;;;16.30;99.90;;;;;;5057915;28;20459;-81
2022/09/16 09:12:38;;;;;;;9.82;1.98;;;16.60;99.90;;;;;;5060506;28;20129;-80
2022/09/16 09:15:19;;;;;;;10.15;1.58;;;16.70;99.90;;;;;;5052266;28;20509;-81
2022/09/16 09:17:54;;;;;;;6.15;1.30;;;16.90;99.90;;;;;;5059561;28;20040;-80
2022/09/16 09:20:20;;;;;;;7.10;1.45;;;17.00;99.90;;;;;;5063292;28;20279;-81
2022/09/16 09:22:54;;;;;;;7.05;1.42;;;17.00;99.90;;;;;;5050156;28;20165;-81
2022/09/16 09:25:24;;;;;;;8.25;1.70;;;17.20;99.90;;;;;;5070770;28;20045;-81
2022/09/16 09:28:08;;;;;;;7.28;1.73;;;17.20;99.90;;;;;;5047703;28;20509;-81
2022/09/16 09:30:37;;;;;;;7.03;1.83;;;17.30;99.90;;;;;;5066871;28;20575;-81
2022/09/16 09:33:05;;;;;;;7.20;1.35;;;17.30;99.90;;;;;;5062527;28;20173;-79
2022/09/16 09:35:55;;;;;;;9.70;1.90;;;17.40;99.90;;;;;;5072017;28;20060;-81
2022/09/16 09:38:46;;;;;;;8.63;1.80;;;17.50;99.90;;;;;;5056051;28;20051;-80
2022/09/16 09:41:19;;;;;;;9.93;1.95;;;17.60;99.90;;;;;;5071142;28;20520;-79
2022/09/16 09:43:55;;;;;;;8.32;1.85;;;17.60;99.90;;;;;;5075596;28;20514;-80
2022/09/16 09:46:35;;;;;;;10.88;2.05;;;17.70;97.20;;;;;;5060030;28;20079;-80
2022/09/16 09:49:07;;;;;;;;;;;17.60;98.70;;;;;;5056735;28;20041;-80
2022/09/16 09:51:44;;;;;;;9.68;1.73;;;17.60;99.90;;;;;;5062091;28;19978;-79
2022/09/16 09:54:28;;;;;;;11.85;2.72;;;17.70;99.70;;;;;;5061849;28;20080;-80
2022/09/16 09:57:11;;;;;;;8.30;1.40;;;17.70;94.60;;;;;;5076830;28;20127;-80
2022/09/16 09:59:47;;;;;;;9.05;1.60;;;17.60;94.60;;;;;;5053616;28;20171;-79
2022/09/16 10:02:20;;;;;;;8.00;1.95;;;17.50;91.90;;;;;;5085733;28;20047;-74
2022/09/16 10:04:46;;;;;;;7.40;1.30;;;17.50;94.40;;;;;;5065932;28;20070;-76
2022/09/16 10:07:15;;;;;;;10.23;1.90;;;17.50;94.90;;;;;;5070911;28;20112;-75
2022/09/16 10:09:50;;;;;;;6.43;1.58;;;17.50;95.90;;;;;;5061508;28;20078;-76
2022/09/16 10:12:29;;;;;;;7.72;1.38;;;17.60;94.10;;;;;;5061835;28;20047;-86
2022/09/16 10:14:55;;;;;;;7.72;1.40;;;17.70;97.90;;;;;;5054143;28;20518;-80
2022/09/16 10:17:21;;;;;;;7.53;1.95;;;17.90;97.80;;;;;;5058921;28;20040;-82
2022/09/16 10:19:59;;;;;;;11.85;1.80;;;17.90;94.10;;;;;;5054796;28;20319;-80
2022/09/16 10:22:34;;;;;;;11.13;1.80;;;17.70;93.60;;;;;;5073450;28;20042;-81
2022/09/16 10:25:19;;;;;;;9.68;1.92;;;17.40;95.20;;;;;;5053858;28;20036;-76
2022/09/16 10:27:55;;;;;;;12.73;2.55;;;17.20;96.10;;;;;;5078762;28;20040;-83
2022/09/16 10:30:21;;;;;;;9.15;2.20;;;16.90;96.90;;;;;;5071874;28;20455;-81
2022/09/16 10:32:56;;;;;;;7.15;1.45;;;16.70;99.90;;;;;;5052278;28;20131;-81
2022/09/16 10:35:29;;;;;;;6.90;1.70;;;16.80;99.90;;;;;;5052562;28;20055;-80
2022/09/16 10:38:20;;;;;;;10.73;2.05;;;17.00;99.90;;;;;;5076078;28;20044;-80
2022/09/16 10:40:59;;;;;;;7.32;2.03;;;17.30;99.90;;;;;;5058060;28;20044;-80
2022/09/16 10:43:28;;;;;;;9.00;1.65;;;17.50;99.90;;;;;;5051864;28;20060;-81
2022/09/16 10:45:55;;;;;;;6.80;1.50;;;17.70;99.90;;;;;;5059935;28;20047;-80
2022/09/16 10:48:25;;;;;;;12.35;1.95;;;17.90;99.90;;;;;;5062432;28;20319;-80
2022/09/16 10:51:01;;;;;;;;;;;18.00;99.30;;;;;;5070991;28;20044;-81
2022/09/16 10:53:39;;;;;;;8.95;1.73;;;18.10;98.60;;;;;;5063717;28;20016;-80
2022/09/16 10:56:16;;;;;;;11.63;1.67;;;18.30;99.10;;;;;;5051686;28;20075;-83
2022/09/16 10:58:42;;;;;;;8.70;1.70;;;18.40;98.10;;;;;;5048360;28;20333;-83
2022/09/16 11:01:53;;;;;;;10.52;1.58;;;18.60;96.40;;;;;;5038380;28;20052;-82
2022/09/16 11:04:28;;;;;;;10.93;1.55;;;18.70;95.30;;;;;;5057989;27;20398;-83
2022/09/16 11:07:09;;;;;;;6.18;1.33;;;18.80;93.40;;;;;;5068787;28;20247;-83
2022/09/16 11:10:02;;;;;;;7.82;1.40;;;18.70;92.00;;;;;;5060708;28;20109;-81
2022/09/16 11:12:38;;;;;;;8.90;1.63;;;18.60;92.90;;;;;;5075374;28;20047;-80
2022/09/16 11:15:28;;;;;;;7.85;1.70;;;18.60;90.90;;;;;;5060512;28;20228;-81
2022/09/16 11:17:57;;;;;;;6.70;1.48;;;18.60;91.80;;;;;;5067349;28;20127;-81
2022/09/16 11:20:40;;;;;;;6.82;1.15;;;18.50;90.80;;;;;;5051882;28;20414;-82
2022/09/16 11:23:31;;;;;;;6.53;1.25;;;18.20;90.80;;;;;;5074968;28;20119;-81
2022/09/16 11:26:28;;;;;;;7.68;1.20;;;18.20;92.40;;;;;;5058380;28;20090;-82
2022/09/16 11:29:15;;;;;;;6.72;1.48;;;18.20;92.20;;;;;;5052718;28;20043;-80
2022/09/16 11:31:57;;;;;;;7.30;1.55;;;18.40;93.20;;;;;;5062822;28;20414;-81
2022/09/16 11:34:26;;;;;;;9.57;1.50;;;18.60;94.70;;;;;;5070867;28;20086;-80
2022/09/16 11:37:13;;;;;;;7.38;1.40;;;18.80;92.80;;;;;;5056641;28;20040;-80
2022/09/16 11:39:56;;;;;;;6.93;1.30;;;18.90;91.90;;;;;;5072334;28;20058;-80
2022/09/16 11:42:33;;;;;;;11.05;1.95;;;18.70;91.80;;;;;;5056303;28;20398;-79
2022/09/16 11:45:15;;;;;;;10.60;1.70;;;18.50;90.60;;;;;;5071403;28;20131;-82
2022/09/16 11:47:41;;;;;;;8.88;1.40;;;18.10;92.70;;;;;;5068000;28;20040;-83
2022/09/16 11:50:22;;;;;;;8.13;1.30;;;17.60;99.40;;;;;;5072155;28;20298;-86
2022/09/16 11:53:17;;;;;;;5.95;1.15;;;17.10;99.90;;;;;;5070992;28;20586;-82
2022/09/16 11:56:08;;;;;;;7.45;1.65;;;16.60;99.90;;;;;;5024403;28;20093;-82
2022/09/16 11:58:52;;;;;;;8.77;1.40;;;16.40;99.90;;;;;;5076158;28;20060;-82
2022/09/16 12:01:30;;;;;;;8.85;1.67;;;16.40;99.90;;;;;;5065922;28;20056;-79
2022/09/16 12:04:17;;;;;;;8.73;1.40;;;16.50;99.90;;;;;;5076451;28;20054;-80
2022/09/16 12:07:20;;;;;;;7.95;1.65;;;16.70;99.90;;;;;;5051862;28;20052;-79
2022/09/16 12:09:55;;;;;;;11.27;1.73;;;17.00;99.90;;;;;;5050327;28;20147;-79
2022/09/16 12:12:31;;;;;;;7.93;1.20;;;16.90;99.90;;;;;;5062580;28;20035;-81
2022/09/16 12:15:01;;;;;;;8.65;1.60;;;16.70;99.90;;;;;;5053549;28;20054;-80
2022/09/16 12:17:33;;;;;;;8.85;1.63;;;16.50;99.90;;;;;;5062417;28;20491;-80
2022/09/16 12:20:19;;;;;;;9.55;1.75;;;16.40;99.90;;;;;;5051712;28;20051;-82
2022/09/16 12:23:01;;;;;;;6.22;1.50;;;16.30;99.90;;;;;;5063780;28;20044;-82
2022/09/16 12:25:55;;;;;;;7.82;1.60;;;16.20;99.90;;;;;;5047620;28;20048;-81
2022/09/16 12:28:42;;;;;;;6.72;1.60;;;16.10;99.90;;;;;;5053627;28;20047;-80
2022/09/16 12:31:25;;;;;;;6.63;1.60;;;16.20;99.90;;;;;;5063675;28;20032;-80
2022/09/16 12:33:59;;;;;;;8.60;1.60;;;16.50;99.90;;;;;;5053184;28;20581;-81
2022/09/16 12:36:30;;;;;;;7.88;1.73;;;16.90;99.90;;;;;;5054860;28;20062;-79
2022/09/16 12:38:59;;;;;;;6.30;1.38;;;17.30;99.90;;;;;;5069558;28;20106;-80
2022/09/16 12:41:59;;;;;;;9.35;1.80;;;17.70;99.90;;;;;;5053832;28;20063;-79
2022/09/16 12:44:50;;;;;;;8.30;1.80;;;18.00;99.90;;;;;;5060883;28;20056;-80
2022/09/16 12:47:31;;;;;;;11.23;2.33;;;18.20;99.90;;;;;;5075275;28;20027;-80
2022/09/16 12:50:29;;;;;;;12.15;2.05;;;18.30;99.90;;;;;;5074138;28;20710;-81
2022/09/16 12:53:13;;;;;;;11.93;2.00;;;18.10;98.90;;;;;;5076804;28;20470;-79
2022/09/16 12:55:39;;;;;;;7.95;1.67;;;17.90;96.80;;;;;;5057383;27;20477;-82
2022/09/16 12:58:33;;;;;;;9.10;1.63;;;17.60;94.50;;;;;;5057081;28;20044;-80
2022/09/16 13:01:26;;;;;;;11.27;2.00;;;17.40;95.50;;;;;;5052491;28;20512;-80
2022/09/16 13:04:02;;;;;;;9.00;1.80;;;17.30;96.40;;;;;;5057798;28;20089;-84
2022/09/16 13:06:34;;;;;;;9.60;1.90;;;17.30;97.20;;;;;;5076514;28;20059;-84
2022/09/16 13:09:23;;;;;;;10.75;2.00;;;17.30;97.70;;;;;;5065394;28;20048;-80
2022/09/16 13:12:05;;;;;;;14.15;2.30;;;17.40;97.50;;;;;;5055451;28;20074;-79
2022/09/16 13:14:45;;;;;;;11.27;2.08;;;17.40;97.70;;;;;;5070973;28;20418;-81
2022/09/16 13:17:11;;;;;;;10.83;1.80;;;17.30;97.50;;;;;;5083680;28;20540;-80
2022/09/16 13:19:51;;;;;;;11.68;2.45;;;17.40;98.40;;;;;;5049227;28;20115;-80
2022/09/16 13:22:20;;;;;;;;;;;17.50;98.20;;;;;;5067941;28;20119;-80
2022/09/16 13:24:52;;;;;;;11.63;2.28;;;17.50;97.90;;;;;;5069524;28;19931;-79
2022/09/16 13:27:28;;;;;;;14.52;2.97;;;17.50;96.70;;;;;;5058398;28;20603;-80